Map

Track Data

SID SEASON NUMBER BASIN SUBBASIN NAME ISO_TIME NATURE LAT LON WMO_WIND WMO_PRES WMO_AGENCY TRACK_TYPE DIST2LAND LANDFALL IFLAG USA_AGENCY USA_ATCF_ID USA_LAT USA_LON USA_RECORD USA_STATUS USA_WIND USA_PRES USA_SSHS USA_R34_NE USA_R34_SE USA_R34_SW USA_R34_NW USA_R50_NE USA_R50_SE USA_R50_SW USA_R50_NW USA_R64_NE USA_R64_SE USA_R64_SW USA_R64_NW USA_POCI USA_ROCI USA_RMW USA_EYE TOKYO_LAT TOKYO_LON TOKYO_GRADE TOKYO_WIND TOKYO_PRES TOKYO_R50_DIR TOKYO_R50_LONG TOKYO_R50_SHORT TOKYO_R30_DIR TOKYO_R30_LONG TOKYO_R30_SHORT TOKYO_LAND CMA_LAT CMA_LON CMA_CAT CMA_WIND CMA_PRES HKO_LAT HKO_LON HKO_CAT HKO_WIND HKO_PRES NEWDELHI_LAT NEWDELHI_LON NEWDELHI_GRADE NEWDELHI_WIND NEWDELHI_PRES NEWDELHI_CI NEWDELHI_DP NEWDELHI_POCI REUNION_LAT REUNION_LON REUNION_TYPE REUNION_WIND REUNION_PRES REUNION_TNUM REUNION_CI REUNION_RMW REUNION_R34_NE REUNION_R34_SE REUNION_R34_SW REUNION_R34_NW REUNION_R50_NE REUNION_R50_SE REUNION_R50_SW REUNION_R50_NW REUNION_R64_NE REUNION_R64_SE REUNION_R64_SW REUNION_R64_NW BOM_LAT BOM_LON BOM_TYPE BOM_WIND BOM_PRES BOM_TNUM BOM_CI BOM_RMW BOM_R34_NE BOM_R34_SE BOM_R34_SW BOM_R34_NW BOM_R50_NE BOM_R50_SE BOM_R50_SW BOM_R50_NW BOM_R64_NE BOM_R64_SE BOM_R64_SW BOM_R64_NW BOM_ROCI BOM_POCI BOM_EYE BOM_POS_METHOD BOM_PRES_METHOD NADI_LAT NADI_LON NADI_CAT NADI_WIND NADI_PRES WELLINGTON_LAT WELLINGTON_LON WELLINGTON_WIND WELLINGTON_PRES DS824_LAT DS824_LON DS824_STAGE DS824_WIND DS824_PRES TD9636_LAT TD9636_LON TD9636_STAGE TD9636_WIND TD9636_PRES TD9635_LAT TD9635_LON TD9635_WIND TD9635_PRES TD9635_ROCI NEUMANN_LAT NEUMANN_LON NEUMANN_CLASS NEUMANN_WIND NEUMANN_PRES MLC_LAT MLC_LON MLC_CLASS MLC_WIND MLC_PRES USA_GUST BOM_GUST BOM_GUST_PER REUNION_GUST REUNION_GUST_PER USA_SEAHGT USA_SEARAD_NE USA_SEARAD_SE USA_SEARAD_SW USA_SEARAD_NW STORM_SPEED STORM_DIR
1979238N12324 1979 74 NA NA DAVID 1979-08-25 12:00:00 TS 11.7000 -36.1000 25 1008 hurdat_atl main 1686 1662 O_____________ hurdat_atl AL091979 11.7000 -36.1000 TD 25 1008 -1 20 270
1979238N12324 1979 74 NA NA DAVID 1979-08-25 15:00:00 TS 11.6982 -37.1451 main 1662 1646 P_____________ AL091979 11.6982 -37.1451 TD 25 1007 -1 21 270
1979238N12324 1979 74 NA NA DAVID 1979-08-25 18:00:00 TS 11.7000 -38.2000 25 1007 hurdat_atl main 1645 1569 O_____________ hurdat_atl AL091979 11.7000 -38.2000 TD 25 1007 -1 21 270
1979238N12324 1979 74 NA NA DAVID 1979-08-25 21:00:00 TS 11.7073 -39.2649 main 1560 1477 P_____________ AL091979 11.7073 -39.2649 TD 27 1006 -1 21 270
1979238N12324 1979 74 NA NA DAVID 1979-08-26 00:00:00 TS 11.7000 -40.3000 30 1006 hurdat_atl main 1467 1387 O_____________ hurdat_atl AL091979 11.7000 -40.3000 TD 30 1006 -1 20 268
1979238N12324 1979 74 NA NA DAVID 1979-08-26 03:00:00 TS 11.6496 -41.2726 main 1371 1302 P_____________ AL091979 11.6496 -41.2726 TD 32 1005 -1 19 267
1979238N12324 1979 74 NA NA DAVID 1979-08-26 06:00:00 TS 11.6000 -42.2000 35 1005 hurdat_atl main 1293 1218 O_____________ hurdat_atl AL091979 11.6000 -42.2000 TS 35 1005 0 18 268
1979238N12324 1979 74 NA NA DAVID 1979-08-26 09:00:00 TS 11.5923 -43.1299 main 1218 1146 P_____________ AL091979 11.5923 -43.1299 TS 37 1004 0 18 270
1979238N12324 1979 74 NA NA DAVID 1979-08-26 12:00:00 TS 11.6000 -44.0000 40 1003 hurdat_atl main 1146 1094 O_____________ hurdat_atl AL091979 11.6000 -44.0000 TS 40 1003 0 16 270
1979238N12324 1979 74 NA NA DAVID 1979-08-26 15:00:00 TS 11.5921 -44.7725 main 1086 1037 P_____________ AL091979 11.5921 -44.7725 TS 42 1000 0 15 270
1979238N12324 1979 74 NA NA DAVID 1979-08-26 18:00:00 TS 11.6000 -45.5000 45 998 hurdat_atl main 1037 992 O_____________ hurdat_atl AL091979 11.6000 -45.5000 TS 45 998 0 15 272
1979238N12324 1979 74 NA NA DAVID 1979-08-26 21:00:00 TS 11.6423 -46.2500 main 992 953 P_____________ AL091979 11.6423 -46.2500 TS 50 994 0 15 274
1979238N12324 1979 74 NA NA DAVID 1979-08-27 00:00:00 TS 11.7000 -47.0000 55 990 hurdat_atl main 953 912 O_____________ hurdat_atl AL091979 11.7000 -47.0000 TS 55 990 0 15 274
1979238N12324 1979 74 NA NA DAVID 1979-08-27 03:00:00 TS 11.7573 -47.7500 main 914 866 P_____________ AL091979 11.7573 -47.7500 TS 60 985 0 15 274
1979238N12324 1979 74 NA NA DAVID 1979-08-27 06:00:00 TS 11.8000 -48.5000 65 980 hurdat_atl main 866 828 O_____________ hurdat_atl AL091979 11.8000 -48.5000 HU 65 980 1 15 272
1979238N12324 1979 74 NA NA DAVID 1979-08-27 09:00:00 TS 11.7998 -49.2501 main 823 790 P_____________ AL091979 11.7998 -49.2501 HU 72 973 1 15 270
1979238N12324 1979 74 NA NA DAVID 1979-08-27 12:00:00 TS 11.8000 -50.0000 80 966 hurdat_atl main 790 763 O_____________ hurdat_atl AL091979 11.8000 -50.0000 HU 80 966 1 15 271
1979238N12324 1979 74 NA NA DAVID 1979-08-27 15:00:00 TS 11.8274 -50.7576 main 758 734 P_____________ AL091979 11.8274 -50.7576 HU 87 960 2 15 274
1979238N12324 1979 74 NA NA DAVID 1979-08-27 18:00:00 TS 11.9000 -51.5000 95 954 hurdat_atl main 734 717 O_____________ hurdat_atl AL091979 11.9000 -51.5000 HU 95 954 2 14 278
1979238N12324 1979 74 NA NA DAVID 1979-08-27 21:00:00 TS 12.0347 -52.2000 main 717 713 P_____________ AL091979 12.0347 -52.2000 HU 105 950 3 14 282
1979238N12324 1979 74 NA NA DAVID 1979-08-28 00:00:00 TS 12.2000 -52.9000 115 947 hurdat_atl main 720 715 O_____________ hurdat_atl AL091979 12.2000 -52.9000 HU 115 947 4 15 282
1979238N12324 1979 74 NA NA DAVID 1979-08-28 03:00:00 TS 12.3500 -53.6575 main 719 712 P_____________ AL091979 12.3500 -53.6575 HU 120 944 4 15 282
1979238N12324 1979 74 NA NA DAVID 1979-08-28 06:00:00 TS 12.5000 -54.4000 125 941 hurdat_atl main 712 676 O_____________ hurdat_atl AL091979 12.5000 -54.4000 HU 125 941 4 14 282
1979238N12324 1979 74 NA NA DAVID 1979-08-28 09:00:00 TS 12.6423 -55.0726 main 669 623 P_____________ AL091979 12.6423 -55.0726 HU 127 939 4 13 283
1979238N12324 1979 74 NA NA DAVID 1979-08-28 12:00:00 TS 12.8000 -55.7000 130 938 hurdat_atl main 623 572 O_____________ hurdat_atl AL091979 12.8000 -55.7000 HU 130 938 4 13 286
1979238N12324 1979 74 NA NA DAVID 1979-08-28 15:00:00 TS 12.9849 -56.3151 main 572 526 P_____________ AL091979 12.9849 -56.3151 HU 127 939 4 12 289
1979238N12324 1979 74 NA NA DAVID 1979-08-28 18:00:00 TS 13.2000 -56.9000 125 941 hurdat_atl main 526 494 O_____________ hurdat_atl AL091979 13.2000 -56.9000 HU 125 941 4 12 292
1979238N12324 1979 74 NA NA DAVID 1979-08-28 21:00:00 TS 13.4423 -57.4501 main 486 468 P_____________ AL091979 13.4423 -57.4501 HU 122 942 4 12 295
1979238N12324 1979 74 NA NA DAVID 1979-08-29 00:00:00 TS 13.7000 -58.0000 120 944 hurdat_atl main 468 443 O_____________ hurdat_atl AL091979 13.7000 -58.0000 HU 120 944 4 12 294
1979238N12324 1979 74 NA NA DAVID 1979-08-29 03:00:00 TS 13.9425 -58.6001 main 443 433 P_____________ AL091979 13.9425 -58.6001 HU 120 943 4 13 293
1979238N12324 1979 74 NA NA DAVID 1979-08-29 06:00:00 TS 14.2000 -59.2000 120 942 hurdat_atl main 438 433 O_____________ hurdat_atl AL091979 14.2000 -59.2000 HU 120 942 4 12 297
1979238N12324 1979 74 NA CS DAVID 1979-08-29 09:00:00 TS 14.4997 -59.7426 main 448 445 P_____________ AL091979 14.4997 -59.7426 HU 122 940 4 12 299
1979238N12324 1979 74 NA CS DAVID 1979-08-29 12:00:00 TS 14.8000 -60.3000 125 938 hurdat_atl main 465 463 O_____________ hurdat_atl AL091979 14.8000 -60.3000 HU 125 938 4 13 296
1979238N12324 1979 74 NA CS DAVID 1979-08-29 15:00:00 TS 15.0725 -60.9425 main 492 492 P_____________ AL091979 15.0725 -60.9425 HU 125 935 4 14 292
1979238N12324 1979 74 NA CS DAVID 1979-08-29 18:00:00 TS 15.3000 -61.6000 125 933 hurdat_atl main 515 478 O_____________ hurdat_atl AL091979 15.3000 -61.6000 HU 125 933 4 13 288
1979238N12324 1979 74 NA CS DAVID 1979-08-29 21:00:00 TS 15.4571 -62.1928 main 471 416 P_____________ AL091979 15.4571 -62.1928 HU 127 931 4 12 285
1979238N12324 1979 74 NA CS DAVID 1979-08-30 00:00:00 TS 15.6000 -62.8000 130 929 hurdat_atl main 416 347 O_____________ hurdat_atl AL091979 15.6000 -62.8000 HU 130 929 4 13 285
1979238N12324 1979 74 NA CS DAVID 1979-08-30 03:00:00 TS 15.8002 -63.5149 main 347 281 P_____________ AL091979 15.8002 -63.5149 HU 135 927 4 14 287
1979238N12324 1979 74 NA CS DAVID 1979-08-30 06:00:00 TS 16.0000 -64.2000 140 925 hurdat_atl main 281 242 O_____________ hurdat_atl AL091979 16.0000 -64.2000 HU 140 925 5 12 287
1979238N12324 1979 74 NA CS DAVID 1979-08-30 09:00:00 TS 16.1571 -64.7302 main 232 200 P_____________ AL091979 16.1571 -64.7302 HU 142 924 5 10 287
1979238N12324 1979 74 NA CS DAVID 1979-08-30 12:00:00 TS 16.3000 -65.2000 145 924 hurdat_atl main 200 176 O_____________ hurdat_atl AL091979 16.3000 -65.2000 HU 145 924 5 10 288
1979238N12324 1979 74 NA CS DAVID 1979-08-30 15:00:00 TS 16.4573 -65.6925 main 165 145 P_____________ AL091979 16.4573 -65.6925 HU 147 924 5 10 287
1979238N12324 1979 74 NA CS DAVID 1979-08-30 18:00:00 TS 16.6000 -66.2000 150 924 hurdat_atl main 145 135 O_____________ hurdat_atl AL091979 16.6000 -66.2000 HU 150 924 5 10 284
1979238N12324 1979 74 NA CS DAVID 1979-08-30 21:00:00 TS 16.7075 -66.7501 main 134 123 P_____________ AL091979 16.7075 -66.7501 HU 147 925 5 11 281
1979238N12324 1979 74 NA CS DAVID 1979-08-31 00:00:00 TS 16.8000 -67.3000 145 927 hurdat_atl main 123 119 O_____________ hurdat_atl AL091979 16.8000 -67.3000 HU 145 927 5 10 281
1979238N12324 1979 74 NA CS DAVID 1979-08-31 03:00:00 TS 16.8999 -67.8225 main 128 128 P_____________ AL091979 16.8999 -67.8225 HU 145 927 5 10 282
1979238N12324 1979 74 NA CS DAVID 1979-08-31 06:00:00 TS 17.0000 -68.3000 145 928 hurdat_atl main 137 123 O_____________ hurdat_atl AL091979 17.0000 -68.3000 HU 145 928 5 9 281
1979238N12324 1979 74 NA CS DAVID 1979-08-31 09:00:00 TS 17.0624 -68.7302 main 123 113 P_____________ AL091979 17.0624 -68.7302 HU 145 927 5 8 285
1979238N12324 1979 74 NA CS DAVID 1979-08-31 12:00:00 TS 17.2000 -69.1000 145 927 hurdat_atl main 116 100 O_____________ hurdat_atl AL091979 17.2000 -69.1000 HU 145 927 5 8 304
1979238N12324 1979 74 NA CS DAVID 1979-08-31 15:00:00 TS 17.4974 -69.4076 main 100 56 P_____________ AL091979 17.4974 -69.4076 HU 147 926 5 9 321
1979238N12324 1979 74 NA CS DAVID 1979-08-31 18:00:00 TS 17.9000 -69.7000 150 926 hurdat_atl main 56 10 O_____________ hurdat_atl AL091979 17.9000 -69.7000 HU 150 926 5 10 328
1979238N12324 1979 74 NA CS DAVID 1979-08-31 21:00:00 TS 18.3644 -69.9753 main 0 0 P_____________ AL091979 18.3644 -69.9753 HU 140 939 5 11 324
1979238N12324 1979 74 NA NA DAVID 1979-09-01 00:00:00 TS 18.8000 -70.4000 130 953 hurdat_atl main 0 0 O_____________ hurdat_atl AL091979 18.8000 -70.4000 HU 130 953 4 13 304
1979238N12324 1979 74 NA NA DAVID 1979-09-01 03:00:00 TS 19.0877 -71.1251 main 0 0 P_____________ AL091979 19.0877 -71.1251 HU 115 965 4 16 288
1979238N12324 1979 74 NA NA DAVID 1979-09-01 06:00:00 TS 19.3000 -72.0000 100 978 hurdat_atl main 0 0 O_____________ hurdat_atl AL091979 19.3000 -72.0000 HU 100 978 3 17 283
1979238N12324 1979 74 NA CS DAVID 1979-09-01 09:00:00 TS 19.4704 -72.9029 main 11 0 P_____________ AL091979 19.4704 -72.9029 HU 82 990 1 17 284
1979238N12324 1979 74 NA CS DAVID 1979-09-01 12:00:00 TS 19.7000 -73.7000 65 1002 hurdat_atl main 20 10 O_____________ hurdat_atl AL091979 19.7000 -73.7000 HU 65 1002 1 14 298
1979238N12324 1979 74 NA NA DAVID 1979-09-01 15:00:00 TS 20.1269 -74.2324 main 10 0 P_____________ AL091979 20.1269 -74.2324 HU 62 1002 0 12 317
1979238N12324 1979 74 NA NA DAVID 1979-09-01 18:00:00 TS 20.6000 -74.6000 60 1002 hurdat_atl main 10 10 O_____________ hurdat_atl AL091979 20.6000 -74.6000 TS 60 1002 0 11 322
1979238N12324 1979 74 NA NA DAVID 1979-09-01 21:00:00 TS 20.9724 -74.9452 main 44 44 P_____________ AL091979 20.9724 -74.9452 TS 62 999 0 9 321
1979238N12324 1979 74 NA NA DAVID 1979-09-02 00:00:00 TS 21.3000 -75.2000 65 997 hurdat_atl main 53 53 O_____________ hurdat_atl AL091979 21.3000 -75.2000 HU 65 997 1 7 329
1979238N12324 1979 74 NA NA DAVID 1979-09-02 03:00:00 TS 21.5698 -75.3357 main 73 70 P_____________ AL091979 21.5698 -75.3357 HU 67 993 1 7 335
1979238N12324 1979 74 NA NA DAVID 1979-09-02 06:00:00 TS 21.9000 -75.5000 70 990 hurdat_atl main 101 101 O_____________ hurdat_atl AL091979 21.9000 -75.5000 HU 70 990 1 10 331
1979238N12324 1979 74 NA NA DAVID 1979-09-02 09:00:00 TS 22.4274 -75.8398 main 140 140 P_____________ AL091979 22.4274 -75.8398 HU 70 987 1 13 326
1979238N12324 1979 74 NA NA DAVID 1979-09-02 12:00:00 TS 23.0000 -76.3000 70 984 hurdat_atl main 166 143 O_____________ hurdat_atl AL091979 23.0000 -76.3000 HU 70 984 1 14 319
1979238N12324 1979 74 NA NA DAVID 1979-09-02 15:00:00 TS 23.4802 -76.8499 main 143 67 P_____________ AL091979 23.4802 -76.8499 HU 72 981 1 14 312
1979238N12324 1979 74 NA NA DAVID 1979-09-02 18:00:00 TS 23.9000 -77.4000 75 979 hurdat_atl main 67 15 O_____________ hurdat_atl AL091979 23.9000 -77.4000 HU 75 979 1 12 312
1979238N12324 1979 74 NA NA DAVID 1979-09-02 21:00:00 TS 24.2646 -77.8156 main 10 0 P_____________ AL091979 24.2646 -77.8156 HU 77 977 1 10 314
1979238N12324 1979 74 NA NA DAVID 1979-09-03 00:00:00 TS 24.6000 -78.2000 80 976 hurdat_atl main 0 0 O_____________ hurdat_atl AL091979 24.6000 -78.2000 HU 80 976 1 10 310
1979238N12324 1979 74 NA NA DAVID 1979-09-03 03:00:00 TS 24.9277 -78.6726 main 39 39 P_____________ AL091979 24.9277 -78.6726 HU 80 975 1 11 311
1979238N12324 1979 74 NA NA DAVID 1979-09-03 06:00:00 TS 25.3000 -79.1000 80 974 hurdat_atl main 98 70 O_____________ hurdat_atl AL091979 25.3000 -79.1000 HU 80 974 1 11 324
1979238N12324 1979 74 NA NA DAVID 1979-09-03 09:00:00 TS 25.7847 -79.3729 main 70 49 P_____________ AL091979 25.7847 -79.3729 HU 82 973 1 11 336
1979238N12324 1979 74 NA NA DAVID 1979-09-03 12:00:00 TS 26.3000 -79.6000 85 973 hurdat_atl main 49 14 O_____________ hurdat_atl AL091979 26.3000 -79.6000 HU 85 973 2 11 334
1979238N12324 1979 74 NA NA DAVID 1979-09-03 15:00:00 TS 26.7651 -79.9149 main 9 0 P_____________ AL091979 26.7651 -79.9149 HU 85 972 2 11 329
1979238N12324 1979 74 NA NA DAVID 1979-09-03 18:00:00 TS 27.2000 -80.2000 85 972 hurdat_atl main 0 0 O_____________ hurdat_atl AL091979 27.2000 -80.2000 HU 85 972 2 9 334
1979238N12324 1979 74 NA NA DAVID 1979-09-03 21:00:00 TS 27.5849 -80.3730 main 0 0 P_____________ AL091979 27.5849 -80.3730 HU 85 971 2 8 342
1979238N12324 1979 74 NA NA DAVID 1979-09-04 00:00:00 TS 28.0000 -80.5000 85 971 hurdat_atl main 9 0 O_____________ hurdat_atl AL091979 28.0000 -80.5000 HU 85 971 2 10 345
1979238N12324 1979 74 NA NA DAVID 1979-09-04 03:00:00 TS 28.5275 -80.6648 main 0 0 P_____________ AL091979 28.5275 -80.6648 HU 85 970 2 11 347
1979238N12324 1979 74 NA NA DAVID 1979-09-04 06:00:00 TS 29.1000 -80.8000 85 970 hurdat_atl main 9 9 O_____________ hurdat_atl AL091979 29.1000 -80.8000 HU 85 970 2 11 352
1979238N12324 1979 74 NA NA DAVID 1979-09-04 09:00:00 TS 29.6349 -80.8506 main 28 28 P_____________ AL091979 29.6349 -80.8506 HU 85 970 2 11 355
1979238N12324 1979 74 NA NA DAVID 1979-09-04 12:00:00 TS 30.2000 -80.9000 85 970 hurdat_atl main 49 28 O_____________ hurdat_atl AL091979 30.2000 -80.9000 HU 85 970 2 12 351
1979238N12324 1979 74 NA NA DAVID 1979-09-04 15:00:00 TS 30.8576 -81.0642 main 28 9 P_____________ AL091979 30.8576 -81.0642 HU 82 970 1 13 349
1979238N12324 1979 74 NA NA DAVID 1979-09-04 18:00:00 TS 31.5000 -81.2000 80 970 hurdat_atl main 11 0 O_____________ hurdat_atl AL091979 31.5000 -81.2000 HU 80 970 1 12 355
1979238N12324 1979 74 NA NA DAVID 1979-09-04 21:00:00 TS 32.0225 -81.1879 main 0 0 P_____________ AL091979 32.0225 -81.1879 HU 72 971 1 10 5
1979238N12324 1979 74 NA NA DAVID 1979-09-05 00:00:00 TS 32.5000 -81.1000 65 972 hurdat_atl main 0 0 O_____________ hurdat_atl AL091979 32.5000 -81.1000 HU 65 972 1 10 9
1979238N12324 1979 74 NA NA DAVID 1979-09-05 03:00:00 TS 32.9700 -81.0147 main 0 0 P_____________ AL091979 32.9700 -81.0147 HU 60 974 0 10 10
1979238N12324 1979 74 NA NA DAVID 1979-09-05 06:00:00 TS 33.5000 -80.9000 55 976 hurdat_atl main 0 0 O_____________ hurdat_atl AL091979 33.5000 -80.9000 TS 55 976 0 12 9
1979238N12324 1979 74 NA NA DAVID 1979-09-05 09:00:00 TS 34.1775 -80.7722 main 0 0 P_____________ AL091979 34.1775 -80.7722 TS 50 978 0 14 10
1979238N12324 1979 74 NA NA DAVID 1979-09-05 12:00:00 TS 34.9000 -80.6000 45 980 hurdat_atl main 0 0 O_____________ hurdat_atl AL091979 34.9000 -80.6000 TS 45 980 0 14 13
1979238N12324 1979 74 NA NA DAVID 1979-09-05 15:00:00 TS 35.5500 -80.3721 main 0 0 P_____________ AL091979 35.5500 -80.3721 TS 42 982 0 14 17
1979238N12324 1979 74 NA NA DAVID 1979-09-05 18:00:00 TS 36.2000 -80.1000 40 984 hurdat_atl main 0 0 O_____________ hurdat_atl AL091979 36.2000 -80.1000 TS 40 984 0 14 18
1979238N12324 1979 74 NA NA DAVID 1979-09-05 21:00:00 TS 36.8772 -79.8361 main 0 0 P_____________ AL091979 36.8772 -79.8361 TS 40 985 0 15 19
1979238N12324 1979 74 NA NA DAVID 1979-09-06 00:00:00 TS 37.6000 -79.5000 40 987 hurdat_atl main 0 0 O_____________ hurdat_atl AL091979 37.6000 -79.5000 TS 40 987 0 16 21
1979238N12324 1979 74 NA NA DAVID 1979-09-06 03:00:00 TS 38.3311 -79.1148 main 0 0 P_____________ AL091979 38.3311 -79.1148 TS 40 988 0 18 26
1979238N12324 1979 74 NA NA DAVID 1979-09-06 06:00:00 TS 39.2000 -78.5000 40 989 hurdat_atl main 0 0 O_____________ hurdat_atl AL091979 39.2000 -78.5000 TS 40 989 0 24 32
1979238N12324 1979 74 NA NA DAVID 1979-09-06 09:00:00 TS 40.3353 -77.5227 main 0 0 P_____________ AL091979 40.3353 -77.5227 TS 40 990 0 28 36
1979238N12324 1979 74 NA NA DAVID 1979-09-06 12:00:00 TS 41.5000 -76.3000 40 991 hurdat_atl main 0 0 O_____________ hurdat_atl AL091979 41.5000 -76.3000 TS 40 991 0 28 41
1979238N12324 1979 74 NA NA DAVID 1979-09-06 15:00:00 TS 42.4413 -75.1049 main 0 0 P_____________ AL091979 42.4413 -75.1049 TS 40 991 0 26 47
1979238N12324 1979 74 NA NA DAVID 1979-09-06 18:00:00 ET 43.3000 -73.7000 40 992 hurdat_atl main 0 0 O_____________ hurdat_atl AL091979 43.3000 -73.7000 EX 40 992 -4 29 53
1979238N12324 1979 74 NA NA DAVID 1979-09-06 21:00:00 ET 44.1721 -71.9528 main 0 0 P_____________ AL091979 44.1721 -71.9528 EX 42 991 -4 31 57
1979238N12324 1979 74 NA NA DAVID 1979-09-07 00:00:00 ET 45.0000 -70.0000 45 991 hurdat_atl main 0 0 O_____________ hurdat_atl AL091979 45.0000 -70.0000 EX 45 991 -4 32 59
1979238N12324 1979 74 NA NA DAVID 1979-09-07 03:00:00 ET 45.7981 -68.0568 main 0 0 P_____________ AL091979 45.7981 -68.0568 EX 47 989 -4 32 62
1979238N12324 1979 74 NA NA DAVID 1979-09-07 06:00:00 ET 46.5000 -66.0000 50 988 hurdat_atl main 0 0 O_____________ hurdat_atl AL091979 46.5000 -66.0000 EX 50 988 -4 32 69
1979238N12324 1979 74 NA NA DAVID 1979-09-07 09:00:00 ET 46.9232 -63.7652 main 15 15 P_____________ AL091979 46.9232 -63.7652 EX 50 987 -4 32 72
1979238N12324 1979 74 NA NA DAVID 1979-09-07 12:00:00 ET 47.5000 -61.5000 50 987 hurdat_atl main 89 21 O_____________ hurdat_atl AL091979 47.5000 -61.5000 EX 50 987 -4 35 61
1979238N12324 1979 74 NA NA DAVID 1979-09-07 15:00:00 ET 48.6338 -59.2533 main 14 0 P_____________ AL091979 48.6338 -59.2533 EX 52 986 -4 39 50
1979238N12324 1979 74 NA NA DAVID 1979-09-07 18:00:00 ET 50.0000 -57.0000 55 986 hurdat_atl main 0 0 O_____________ hurdat_atl AL091979 50.0000 -57.0000 EX 55 986 -4 39 47
1979238N12324 1979 74 NA NA DAVID 1979-09-07 21:00:00 ET 51.2951 -54.7667 main 49 49 P_____________ AL091979 51.2951 -54.7667 EX 57 985 -4 38 48
1979238N12324 1979 74 NA NA DAVID 1979-09-08 00:00:00 ET 52.5000 -52.5000 60 985 hurdat_atl main 209 O_____________ hurdat_atl AL091979 52.5000 -52.5000 EX 60 985 -4 37 49

About IBTrACS Database

This database is a web-friendly format of International Best Track Archive for Climate Stewardship (IBTrACS), a global best track data archive curated by NOAA dating back to 1842.

Updated: 2021-12-01